| time (UTC) | temp C | wind direction | speed KPH | gust KPH | rain 1hr cm | rain 24hr cm | rain mn cm | humidity % | barometer mb |
| 20260507150100 | 13 | 186 | 17.7 | 25.7 | 0.00 | 0.00 | 0.00 | 77 | 1020.3 |
| 20260507145600 | 13 | 256 | 6.4 | 9.7 | 0.00 | 0.00 | 0.00 | 88 | 1020.4 |
| 20260507145100 | 12 | 141 | 20.9 | 25.7 | 0.00 | 0.00 | 0.00 | 92 | 1020.3 |
| 20260507144600 | 12 | 164 | 9.7 | 12.9 | 0.00 | 0.00 | 0.00 | 94 | 1020.4 |
| 20260507144100 | 11 | 182 | 20.9 | 25.7 | 0.00 | 0.00 | 0.00 | 95 | 1020.4 |
| 20260507143600 | 11 | 130 | 20.9 | 25.7 | 0.00 | 0.00 | 0.00 | 96 | 1020.3 |
| 20260507143100 | 11 | 44 | 1.6 | 3.2 | 0.00 | 0.00 | 0.00 | 97 | 1020.4 |
| 20260507142600 | 11 | 201 | 22.5 | 30.6 | 0.00 | 0.00 | 0.00 | 97 | 1020.2 |
| 20260507142100 | 11 | 155 | 11.3 | 17.7 | 0.00 | 0.00 | 0.00 | 97 | 1020.4 |
| 20260507141559 | 11 | 257 | 4.8 | 12.9 | 0.00 | 0.00 | 0.00 | 98 | 1020.4 |
| 20260507141059 | 11 | 100 | 11.3 | 25.7 | 0.00 | 0.00 | 0.00 | 98 | 1020.6 |
| 20260507140559 | 10 | 202 | 9.7 | 12.9 | 0.00 | 0.00 | 0.00 | 99 | 1020.5 |
| 20260507140059 | 10 | 156 | 24.1 | 30.6 | 0.00 | 0.00 | 0.00 | 99 | 1020.4 |
| 20260507135559 | 10 | 142 | 17.7 | 25.7 | 0.00 | 0.00 | 0.00 | 99 | 1020.4 |
| 20260507135059 | 11 | 154 | 8.0 | 12.9 | 0.00 | 0.00 | 0.00 | 99 | 1020.4 |
| 20260507134559 | 10 | 147 | 11.3 | 17.7 | 0.00 | 0.00 | 0.00 | 99 | 1020.5 |
| 20260507134059 | 10 | 156 | 0.0 | 0.0 | 0.00 | 0.00 | 0.00 | 99 | 1020.5 |
| 20260507133559 | 10 | 150 | 0.0 | 3.2 | 0.00 | 0.00 | 0.00 | 99 | 1020.5 |
| 20260507133059 | 10 | 121 | 0.0 | 3.2 | 0.00 | 0.00 | 0.00 | 99 | 1020.3 |
| 20260507132558 | 9 | 118 | 16.1 | 22.5 | 0.00 | 0.00 | 0.00 | 99 | 1020.4 |
| 20260507132059 | 8 | 97 | 3.2 | 9.7 | 0.00 | 0.00 | 0.00 | 98 | 1020.4 |
| 20260507131601 | 8 | 190 | 3.2 | 9.7 | 0.00 | 0.00 | 0.00 | 98 | 1020.5 |
| 20260507131058 | 8 | 138 | 14.5 | 17.7 | 0.00 | 0.00 | 0.00 | 98 | 1020.3 |
| 20260507130558 | 8 | 204 | 9.7 | 17.7 | 0.00 | 0.00 | 0.00 | 99 | 1020.3 |
| 20260507130058 | 8 | 151 | 4.8 | 9.7 | 0.00 | 0.00 | 0.00 | 98 | 1020.2 |
| 20260507125558 | 8 | 212 | 6.4 | 12.9 | 0.00 | 0.00 | 0.00 | 98 | 1020.1 |
| 20260507125058 | 8 | 137 | 11.3 | 17.7 | 0.00 | 0.00 | 0.00 | 98 | 1020.0 |
| 20260507124558 | 8 | 201 | 9.7 | 12.9 | 0.00 | 0.00 | 0.00 | 99 | 1019.9 |
| 20260507124058 | 8 | 190 | 14.5 | 22.5 | 0.00 | 0.00 | 0.00 | 99 | 1019.9 |
| 20260507123557 | 8 | 151 | 9.7 | 17.7 | 0.00 | 0.00 | 0.00 | 99 | 1019.8 |
| 20260507123058 | 8 | 105 | 0.0 | 0.0 | 0.00 | 0.00 | 0.00 | 99 | 1019.6 |
| 20260507122557 | 8 | 155 | 0.0 | 3.2 | 0.00 | 0.00 | 0.00 | 99 | 1019.9 |
| 20260507122057 | 8 | 116 | 0.0 | 0.0 | 0.00 | 0.00 | 0.00 | 99 | 1019.6 |
| 20260507121557 | 8 | 95 | 0.0 | 0.0 | 0.00 | 0.00 | 0.00 | 99 | 1019.8 |
| 20260507121057 | 8 | 91 | 0.0 | 0.0 | 0.00 | 0.00 | 0.00 | 99 | 1019.8 |
| 20260507120557 | 8 | 114 | 0.0 | 0.0 | 0.00 | 0.00 | 0.00 | 99 | 1019.8 |
| 20260507120057 | 8 | 115 | 0.0 | 0.0 | 0.00 | 0.00 | 0.00 | 99 | 1019.7 |
| 20260507115557 | 8 | 115 | 0.0 | 0.0 | 0.00 | 0.00 | 0.00 | 99 | 1019.6 |
| 20260507115057 | 8 | 115 | 0.0 | 0.0 | 0.00 | 0.00 | 0.00 | 99 | 1019.6 |
| 20260507114556 | 8 | 114 | 0.0 | 0.0 | 0.00 | 0.00 | 0.00 | 99 | 1019.6 |
| 20260507114056 | 8 | 115 | 0.0 | 0.0 | 0.00 | 0.00 | 0.00 | 99 | 1019.4 |
| 20260507113556 | 8 | 114 | 0.0 | 0.0 | 0.00 | 0.00 | 0.00 | 99 | 1019.7 |
| 20260507113056 | 8 | 114 | 0.0 | 0.0 | 0.00 | 0.00 | 0.00 | 99 | 1019.4 |
| 20260507112556 | 8 | 114 | 0.0 | 0.0 | 0.00 | 0.00 | 0.00 | 99 | 1019.4 |
| 20260507112056 | 8 | 114 | 0.0 | 0.0 | 0.00 | 0.00 | 0.00 | 99 | 1019.4 |
| 20260507111556 | 8 | 114 | 0.0 | 0.0 | 0.00 | 0.00 | 0.00 | 99 | 1019.4 |
| 20260507111056 | 8 | 114 | 0.0 | 0.0 | 0.00 | 0.00 | 0.00 | 99 | 1019.4 |
| 20260507110556 | 8 | 113 | 0.0 | 0.0 | 0.00 | 0.00 | 0.00 | 99 | 1019.5 |
| 20260507110056 | 8 | 115 | 0.0 | 0.0 | 0.00 | 0.00 | 0.00 | 99 | 1019.3 |
| 20260507105556 | 8 | 104 | 0.0 | 0.0 | 0.00 | 0.00 | 0.00 | 99 | 1019.2 |
| 20260507105056 | 8 | 102 | 0.0 | 0.0 | 0.00 | 0.00 | 0.00 | 99 | 1019.2 |
| 20260507104555 | 8 | 102 | 0.0 | 0.0 | 0.00 | 0.00 | 0.00 | 99 | 1018.9 |
| 20260507104055 | 8 | 103 | 0.0 | 0.0 | 0.00 | 0.00 | 0.00 | 99 | 1019.1 |
| 20260507103555 | 8 | 103 | 0.0 | 0.0 | 0.00 | 0.00 | 0.00 | 99 | 1019.1 |
| 20260507103055 | 8 | 103 | 0.0 | 0.0 | 0.00 | 0.00 | 0.00 | 99 | 1018.8 |
| 20260507102555 | 8 | 102 | 0.0 | 0.0 | 0.00 | 0.00 | 0.00 | 99 | 1018.7 |
| 20260507102055 | 8 | 103 | 0.0 | 0.0 | 0.00 | 0.00 | 0.00 | 99 | 1018.7 |
| 20260507101555 | 8 | 103 | 0.0 | 0.0 | 0.00 | 0.00 | 0.00 | 99 | 1018.5 |
| 20260507101055 | 8 | 97 | 0.0 | 0.0 | 0.00 | 0.00 | 0.00 | 99 | 1018.9 |
| 20260507100555 | 8 | 97 | 0.0 | 0.0 | 0.00 | 0.00 | 0.00 | 99 | 1018.5 |
| 20260507100054 | 8 | 97 | 0.0 | 0.0 | 0.00 | 0.00 | 0.00 | 99 | 1018.7 |
| 20260507095554 | 8 | 97 | 0.0 | 0.0 | 0.00 | 0.00 | 0.00 | 99 | 1018.8 |
| 20260507095054 | 8 | 98 | 0.0 | 0.0 | 0.00 | 0.00 | 0.00 | 99 | 1018.7 |
| 20260507094554 | 8 | 97 | 0.0 | 0.0 | 0.00 | 0.00 | 0.00 | 99 | 1018.4 |
| 20260507094054 | 8 | 112 | 0.0 | 0.0 | 0.00 | 0.00 | 0.00 | 99 | 1018.3 |
| 20260507093554 | 8 | 116 | 0.0 | 0.0 | 0.00 | 0.00 | 0.00 | 99 | 1017.9 |
| 20260507093054 | 8 | 107 | 0.0 | 0.0 | 0.00 | 0.00 | 0.00 | 99 | 1018.4 |
| 20260507092554 | 8 | 108 | 0.0 | 0.0 | 0.00 | 0.00 | 0.00 | 99 | 1018.4 |
| 20260507092054 | 8 | 108 | 0.0 | 0.0 | 0.00 | 0.00 | 0.00 | 99 | 1018.3 |
| 20260507091554 | 9 | 107 | 0.0 | 0.0 | 0.00 | 0.00 | 0.00 | 99 | 1018.3 |
| 20260507091053 | 9 | 106 | 0.0 | 0.0 | 0.00 | 0.00 | 0.00 | 99 | 1018.0 |
| 20260507090554 | 9 | 106 | 0.0 | 0.0 | 0.00 | 0.00 | 0.00 | 99 | 1018.1 |
| 20260507090053 | 9 | 106 | 0.0 | 0.0 | 0.00 | 0.00 | 0.00 | 99 | 1018.1 |
| 20260507085553 | 9 | 104 | 3.2 | 3.2 | 0.00 | 0.00 | 0.00 | 99 | 1018.1 |
| 20260507085053 | 9 | 106 | 0.0 | 0.0 | 0.00 | 0.00 | 0.00 | 99 | 1017.9 |
| 20260507084553 | 9 | 105 | 0.0 | 0.0 | 0.00 | 0.00 | 0.00 | 99 | 1017.9 |
| 20260507084053 | 9 | 106 | 0.0 | 0.0 | 0.00 | 0.00 | 0.00 | 99 | 1018.0 |
| 20260507083553 | 9 | 115 | 0.0 | 0.0 | 0.00 | 0.00 | 0.00 | 99 | 1018.1 |
| 20260507083053 | 9 | 110 | 0.0 | 0.0 | 0.00 | 0.00 | 0.00 | 99 | 1017.8 |
| 20260507082553 | 9 | 143 | 0.0 | 0.0 | 0.00 | 0.00 | 0.00 | 99 | 1017.7 |
| 20260507082053 | 9 | 145 | 0.0 | 0.0 | 0.00 | 0.00 | 0.00 | 99 | 1017.8 |
| 20260507081553 | 9 | 131 | 0.0 | 0.0 | 0.00 | 0.00 | 0.00 | 99 | 1018.0 |
| 20260507081052 | 9 | 167 | 0.0 | 3.2 | 0.00 | 0.00 | 0.00 | 99 | 1018.0 |
| 20260507080552 | 9 | 170 | 0.0 | 0.0 | 0.00 | 0.00 | 0.00 | 99 | 1017.9 |
| 20260507080052 | 9 | 146 | 0.0 | 0.0 | 0.00 | 0.00 | 0.00 | 99 | 1017.8 |
| 20260507075552 | 9 | 130 | 1.6 | 3.2 | 0.00 | 0.00 | 0.00 | 99 | 1017.8 |
| 20260507075052 | 9 | 132 | 1.6 | 3.2 | 0.00 | 0.00 | 0.00 | 99 | 1017.8 |
| 20260507074552 | 9 | 145 | 1.6 | 3.2 | 0.00 | 0.00 | 0.00 | 99 | 1017.8 |
| 20260507074052 | 9 | 115 | 0.0 | 3.2 | 0.00 | 0.00 | 0.00 | 99 | 1017.9 |
| 20260507073552 | 9 | 184 | 0.0 | 0.0 | 0.00 | 0.00 | 0.00 | 99 | 1017.8 |
| 20260507073052 | 9 | 150 | 0.0 | 0.0 | 0.00 | 0.00 | 0.00 | 99 | 1017.9 |
| 20260507072551 | 9 | 166 | 0.0 | 0.0 | 0.00 | 0.00 | 0.00 | 99 | 1017.9 |
| 20260507072051 | 9 | 148 | 0.0 | 0.0 | 0.00 | 0.00 | 0.00 | 99 | 1017.9 |
| 20260507071551 | 9 | 133 | 0.0 | 0.0 | 0.00 | 0.00 | 0.00 | 99 | 1018.1 |
| 20260507071052 | 9 | 132 | 0.0 | 0.0 | 0.00 | 0.00 | 0.00 | 99 | 1018.0 |
| 20260507070551 | 9 | 138 | 0.0 | 0.0 | 0.00 | 0.00 | 0.00 | 99 | 1017.8 |
| 20260507070051 | 9 | 130 | 0.0 | 0.0 | 0.00 | 0.00 | 0.00 | 99 | 1017.9 |
| 20260507065051 | 9 | 142 | 0.0 | 0.0 | 0.00 | 0.00 | 0.00 | 99 | 1017.8 |
| 20260507064551 | 9 | 151 | 0.0 | 0.0 | 0.00 | 0.00 | 0.00 | 99 | 1017.8 |
| 20260507064051 | 9 | 122 | 0.0 | 0.0 | 0.00 | 0.00 | 0.00 | 99 | 1017.9 |
| 20260507063551 | 9 | 128 | 8.0 | 12.9 | 0.00 | 0.00 | 0.00 | 99 | 1018.0 |
| 20260507063050 | 9 | 134 | 0.0 | 0.0 | 0.00 | 0.00 | 0.00 | 99 | 1017.9 |
| 20260507062550 | 9 | 133 | 0.0 | 0.0 | 0.00 | 0.00 | 0.00 | 99 | 1017.7 |
| 20260507062050 | 10 | 133 | 1.6 | 9.7 | 0.00 | 0.00 | 0.00 | 99 | 1017.6 |
| 20260507061550 | 10 | 128 | 0.0 | 0.0 | 0.00 | 0.00 | 0.00 | 99 | 1017.8 |
| 20260507061050 | 10 | 120 | 1.6 | 3.2 | 0.00 | 0.00 | 0.00 | 99 | 1018.0 |
| 20260507060550 | 10 | 103 | 0.0 | 0.0 | 0.00 | 0.00 | 0.00 | 99 | 1018.0 |
| 20260507060050 | 10 | 94 | 0.0 | 0.0 | 0.00 | 0.00 | 0.00 | 99 | 1017.9 |
| 20260507055550 | 10 | 94 | 0.0 | 0.0 | 0.00 | 0.00 | 0.00 | 99 | 1017.7 |
| 20260507055050 | 10 | 94 | 0.0 | 0.0 | 0.00 | 0.00 | 0.00 | 99 | 1017.5 |
| 20260507054550 | 10 | 93 | 0.0 | 0.0 | 0.00 | 0.00 | 0.00 | 99 | 1017.7 |
| 20260507054049 | 10 | 93 | 0.0 | 0.0 | 0.00 | 0.00 | 0.00 | 99 | 1017.5 |
| 20260507053549 | 10 | 93 | 0.0 | 0.0 | 0.00 | 0.00 | 0.00 | 99 | 1017.6 |
| 20260507053049 | 10 | 88 | 0.0 | 0.0 | 0.00 | 0.00 | 0.00 | 99 | 1017.7 |
| 20260507052549 | 10 | 79 | 0.0 | 0.0 | 0.00 | 0.00 | 0.00 | 99 | 1017.4 |
| 20260507052049 | 10 | 81 | 0.0 | 0.0 | 0.00 | 0.00 | 0.00 | 99 | 1017.7 |
| 20260507051549 | 10 | 80 | 0.0 | 0.0 | 0.00 | 0.00 | 0.00 | 99 | 1017.7 |
| 20260507051049 | 10 | 56 | 1.6 | 3.2 | 0.00 | 0.00 | 0.00 | 99 | 1017.6 |
| 20260507050549 | 10 | 136 | 3.2 | 3.2 | 0.00 | 0.00 | 0.00 | 99 | 1017.6 |
| 20260507050049 | 10 | 134 | 0.0 | 0.0 | 0.00 | 0.00 | 0.00 | 99 | 1017.7 |
| 20260507045549 | 10 | 133 | 0.0 | 0.0 | 0.00 | 0.00 | 0.00 | 99 | 1017.5 |
| 20260507045048 | 10 | 156 | 0.0 | 0.0 | 0.00 | 0.00 | 0.00 | 99 | 1017.5 |
| 20260507044548 | 10 | 122 | 0.0 | 0.0 | 0.00 | 0.00 | 0.00 | 99 | 1017.7 |
| 20260507044048 | 10 | 148 | 0.0 | 0.0 | 0.00 | 0.00 | 0.00 | 99 | 1017.5 |
| 20260507043548 | 10 | 150 | 0.0 | 0.0 | 0.00 | 0.00 | 0.00 | 99 | 1017.7 |
| 20260507043048 | 10 | 148 | 0.0 | 0.0 | 0.00 | 0.00 | 0.00 | 99 | 1017.7 |
| 20260507042548 | 10 | 151 | 0.0 | 0.0 | 0.00 | 0.00 | 0.00 | 99 | 1017.5 |
| 20260507042048 | 10 | 138 | 0.0 | 0.0 | 0.00 | 0.00 | 0.00 | 99 | 1017.6 |
| 20260507041548 | 10 | 117 | 0.0 | 0.0 | 0.00 | 0.00 | 0.00 | 99 | 1017.5 |
| 20260507041048 | 10 | 115 | 6.4 | 9.7 | 0.00 | 0.00 | 0.00 | 99 | 1017.5 |
| 20260507040548 | 10 | 117 | 0.0 | 0.0 | 0.00 | 0.00 | 0.00 | 99 | 1017.3 |
| 20260507040048 | 10 | 166 | 0.0 | 0.0 | 0.00 | 0.00 | 0.00 | 99 | 1017.6 |
| 20260507035547 | 11 | 272 | 0.0 | 0.0 | 0.00 | 0.00 | 0.00 | 99 | 1017.5 |
| 20260507035047 | 10 | 272 | 0.0 | 0.0 | 0.00 | 0.00 | 0.00 | 99 | 1017.6 |
| 20260507034547 | 10 | 273 | 0.0 | 0.0 | 0.00 | 0.00 | 0.00 | 99 | 1017.7 |
| 20260507034047 | 10 | 273 | 0.0 | 0.0 | 0.00 | 0.00 | 0.00 | 99 | 1017.5 |
| 20260507033547 | 10 | 273 | 0.0 | 0.0 | 0.00 | 0.00 | 0.00 | 99 | 1017.4 |
| 20260507033047 | 10 | 273 | 0.0 | 0.0 | 0.00 | 0.00 | 0.00 | 99 | 1017.2 |
| 20260507032547 | 10 | 270 | 0.0 | 0.0 | 0.00 | 0.00 | 0.00 | 99 | 1017.3 |
| 20260507032046 | 10 | 270 | 0.0 | 0.0 | 0.00 | 0.00 | 0.00 | 99 | 1017.4 |
| 20260507031547 | 10 | 270 | 0.0 | 0.0 | 0.00 | 0.00 | 0.00 | 99 | 1017.2 |
| 20260507031046 | 10 | 288 | 0.0 | 0.0 | 0.00 | 0.00 | 0.00 | 99 | 1017.5 |
| 20260507030546 | 10 | 288 | 0.0 | 0.0 | 0.00 | 0.00 | 0.00 | 99 | 1017.1 |
| 20260507030046 | 10 | 251 | 3.2 | 9.7 | 0.00 | 0.00 | 0.00 | 99 | 1017.1 |
| 20260507025546 | 10 | 356 | 0.0 | 0.0 | 0.00 | 0.00 | 0.00 | 99 | 1017.3 |
| 20260507025046 | 10 | 359 | 0.0 | 0.0 | 0.00 | 0.00 | 0.00 | 99 | 1017.0 |
| 20260507024546 | 10 | 354 | 0.0 | 0.0 | 0.00 | 0.00 | 0.00 | 99 | 1016.9 |
| 20260507024046 | 10 | 294 | 0.0 | 0.0 | 0.00 | 0.00 | 0.00 | 99 | 1017.2 |
| 20260507023546 | 11 | 16 | 0.0 | 0.0 | 0.00 | 0.00 | 0.00 | 99 | 1017.0 |
| 20260507023046 | 11 | 22 | 0.0 | 0.0 | 0.00 | 0.00 | 0.00 | 99 | 1016.8 |
| 20260507022546 | 11 | 319 | 0.0 | 0.0 | 0.00 | 0.00 | 0.00 | 99 | 1016.9 |
| 20260507022045 | 11 | 308 | 0.0 | 0.0 | 0.00 | 0.00 | 0.00 | 99 | 1017.1 |
| 20260507021545 | 11 | 326 | 0.0 | 0.0 | 0.00 | 0.00 | 0.00 | 99 | 1017.0 |
| 20260507021045 | 11 | 311 | 0.0 | 0.0 | 0.00 | 0.00 | 0.00 | 99 | 1016.8 |
| 20260507020545 | 11 | 311 | 0.0 | 0.0 | 0.00 | 0.00 | 0.00 | 99 | 1016.8 |
| 20260507020045 | 11 | 310 | 0.0 | 0.0 | 0.00 | 0.00 | 0.00 | 99 | 1016.6 |
| 20260507015545 | 11 | 9 | 0.0 | 0.0 | 0.00 | 0.00 | 0.00 | 99 | 1016.7 |
| 20260507015045 | 11 | 353 | 0.0 | 0.0 | 0.00 | 0.00 | 0.00 | 99 | 1016.5 |
| 20260507014545 | 11 | 343 | 0.0 | 0.0 | 0.00 | 0.00 | 0.00 | 99 | 1016.5 |
| 20260507014045 | 11 | 276 | 3.2 | 3.2 | 0.00 | 0.00 | 0.00 | 99 | 1016.6 |
| 20260507013545 | 11 | 342 | 0.0 | 0.0 | 0.00 | 0.00 | 0.00 | 99 | 1016.8 |
| 20260507013045 | 11 | 25 | 0.0 | 0.0 | 0.00 | 0.00 | 0.00 | 99 | 1016.5 |
| 20260507012544 | 11 | 14 | 0.0 | 0.0 | 0.00 | 0.00 | 0.00 | 99 | 1016.5 |
| 20260507012044 | 11 | 282 | 0.0 | 0.0 | 0.00 | 0.00 | 0.00 | 99 | 1016.7 |
| 20260507011544 | 11 | 10 | 0.0 | 0.0 | 0.00 | 0.00 | 0.00 | 99 | 1016.5 |
| 20260507011044 | 11 | 284 | 0.0 | 0.0 | 0.00 | 0.00 | 0.00 | 99 | 1016.6 |
| 20260507010544 | 11 | 301 | 0.0 | 0.0 | 0.00 | 0.00 | 0.00 | 99 | 1016.6 |
| 20260507010044 | 11 | 143 | 0.0 | 0.0 | 0.00 | 0.00 | 0.00 | 99 | 1016.6 |
| 20260507005544 | 11 | 194 | 3.2 | 3.2 | 0.00 | 0.00 | 0.00 | 99 | 1016.5 |
| 20260507005044 | 11 | 128 | 0.0 | 0.0 | 0.00 | 0.00 | 0.00 | 99 | 1016.8 |
| 20260507004543 | 11 | 123 | 0.0 | 0.0 | 0.00 | 0.00 | 0.00 | 99 | 1016.6 |
| 20260507004043 | 11 | 123 | 0.0 | 0.0 | 0.00 | 0.00 | 0.00 | 99 | 1016.8 |
| 20260507003543 | 11 | 29 | 0.0 | 3.2 | 0.00 | 0.00 | 0.00 | 99 | 1016.5 |
| 20260507003043 | 11 | 68 | 0.0 | 0.0 | 0.00 | 0.00 | 0.00 | 99 | 1016.4 |
| 20260507002543 | 11 | 157 | 0.0 | 0.0 | 0.00 | 0.00 | 0.00 | 99 | 1016.4 |
| 20260507002043 | 11 | 157 | 0.0 | 0.0 | 0.00 | 0.00 | 0.00 | 99 | 1016.3 |
| 20260507001543 | 11 | 157 | 0.0 | 0.0 | 0.00 | 0.00 | 0.00 | 99 | 1016.3 |
| 20260507001043 | 11 | 168 | 0.0 | 0.0 | 0.00 | 0.00 | 0.00 | 99 | 1016.4 |
| 20260507000543 | 11 | 167 | 3.2 | 9.7 | 0.00 | 0.00 | 0.00 | 99 | 1016.4 |
| 20260507000043 | 11 | 197 | 4.8 | 9.7 | 0.00 | 0.00 | 0.00 | 99 | 1016.4 |
| 20260506235543 | 11 | 131 | 0.0 | 0.0 | 0.00 | 0.00 | 0.00 | 99 | 1016.3 |
| 20260506235043 | 11 | 147 | 0.0 | 0.0 | 0.00 | 0.00 | 0.00 | 99 | 1016.2 |
| 20260506234543 | 11 | 73 | 0.0 | 0.0 | 0.00 | 0.00 | 0.00 | 99 | 1016.2 |
| 20260506234042 | 11 | 57 | 0.0 | 3.2 | 0.00 | 0.00 | 0.00 | 99 | 1016.0 |
| 20260506233542 | 11 | 94 | 0.0 | 0.0 | 0.00 | 0.00 | 0.00 | 99 | 1016.0 |
| 20260506233042 | 11 | 112 | 0.0 | 0.0 | 0.00 | 0.00 | 0.00 | 99 | 1016.1 |
| 20260506232542 | 11 | 115 | 0.0 | 0.0 | 0.00 | 0.00 | 0.00 | 99 | 1015.9 |
| 20260506232042 | 11 | 80 | 0.0 | 0.0 | 0.00 | 0.00 | 0.00 | 99 | 1015.8 |
| 20260506231542 | 11 | 71 | 0.0 | 0.0 | 0.00 | 0.00 | 0.00 | 99 | 1015.8 |
| 20260506231042 | 11 | 87 | 0.0 | 0.0 | 0.00 | 0.00 | 0.00 | 99 | 1015.7 |
| 20260506230542 | 12 | 91 | 0.0 | 0.0 | 0.00 | 0.00 | 0.00 | 99 | 1015.7 |
| 20260506230041 | 12 | 7 | 1.6 | 3.2 | 0.00 | 0.00 | 0.00 | 99 | 1015.7 |
| 20260506225541 | 12 | 103 | 0.0 | 0.0 | 0.00 | 0.00 | 0.00 | 99 | 1015.5 |
| 20260506225041 | 12 | 116 | 3.2 | 3.2 | 0.00 | 0.00 | 0.00 | 99 | 1015.6 |
| 20260506224541 | 12 | 85 | 0.0 | 0.0 | 0.00 | 0.00 | 0.00 | 99 | 1015.6 |
| 20260506224041 | 12 | 135 | 0.0 | 0.0 | 0.00 | 0.00 | 0.00 | 99 | 1015.4 |
| 20260506223541 | 12 | 87 | 0.0 | 0.0 | 0.00 | 0.00 | 0.00 | 99 | 1015.4 |
| 20260506223041 | 12 | 35 | 0.0 | 0.0 | 0.00 | 0.00 | 0.00 | 99 | 1015.2 |
| 20260506222541 | 12 | 290 | 1.6 | 3.2 | 0.00 | 0.00 | 0.00 | 99 | 1015.4 |
| 20260506222041 | 12 | 76 | 0.0 | 0.0 | 0.00 | 0.00 | 0.00 | 99 | 1015.2 |
| 20260506221540 | 12 | 349 | 3.2 | 3.2 | 0.00 | 0.00 | 0.00 | 99 | 1015.1 |
| 20260506221040 | 12 | 60 | 0.0 | 0.0 | 0.00 | 0.00 | 0.00 | 99 | 1015.1 |
| 20260506220540 | 12 | 81 | 0.0 | 3.2 | 0.00 | 0.00 | 0.00 | 99 | 1015.1 |
| 20260506220040 | 12 | 277 | 3.2 | 12.9 | 0.00 | 0.00 | 0.00 | 99 | 1014.8 |
| 20260506215540 | 12 | 264 | 0.0 | 0.0 | 0.00 | 0.00 | 0.00 | 99 | 1015.0 |
| 20260506215040 | 12 | 348 | 0.0 | 0.0 | 0.00 | 0.00 | 0.00 | 99 | 1014.9 |
| 20260506214540 | 12 | 245 | 4.8 | 12.9 | 0.00 | 0.00 | 0.00 | 99 | 1014.8 |
| 20260506214040 | 12 | 298 | 3.2 | 12.9 | 0.00 | 0.00 | 0.00 | 99 | 1014.7 |
| 20260506213540 | 12 | 266 | 0.0 | 0.0 | 0.00 | 0.00 | 0.00 | 99 | 1014.6 |
| 20260506213040 | 12 | 72 | 3.2 | 9.7 | 0.00 | 0.00 | 0.00 | 99 | 1014.5 |
| 20260506212539 | 12 | 202 | 0.0 | 0.0 | 0.00 | 0.00 | 0.00 | 99 | 1014.5 |
| 20260506212040 | 12 | 254 | 1.6 | 3.2 | 0.00 | 0.00 | 0.00 | 99 | 1014.7 |
| 20260506211539 | 12 | 42 | 3.2 | 9.7 | 0.00 | 0.00 | 0.00 | 99 | 1014.6 |
| 20260506211039 | 12 | 258 | 8.0 | 17.7 | 0.00 | 0.00 | 0.00 | 99 | 1014.6 |
| 20260506210539 | 12 | 359 | 0.0 | 0.0 | 0.00 | 0.00 | 0.00 | 99 | 1014.4 |
| 20260506210039 | 12 | 341 | 0.0 | 3.2 | 0.00 | 0.00 | 0.00 | 99 | 1014.5 |
| 20260506205539 | 12 | 335 | 0.0 | 0.0 | 0.00 | 0.00 | 0.00 | 99 | 1014.3 |
| 20260506205039 | 12 | 279 | 8.0 | 12.9 | 0.00 | 0.00 | 0.00 | 99 | 1014.5 |
| 20260506204539 | 12 | 281 | 4.8 | 9.7 | 0.00 | 0.00 | 0.00 | 99 | 1014.3 |
| 20260506204039 | 12 | 52 | 0.0 | 0.0 | 0.00 | 0.00 | 0.00 | 99 | 1014.4 |
| 20260506203539 | 12 | 11 | 0.0 | 3.2 | 0.00 | 0.00 | 0.00 | 99 | 1014.5 |
| 20260506203038 | 13 | 216 | 9.7 | 17.7 | 0.00 | 0.00 | 0.00 | 99 | 1014.4 |
| 20260506202538 | 13 | 334 | 0.0 | 3.2 | 0.00 | 0.00 | 0.00 | 99 | 1014.3 |
| 20260506202038 | 13 | 218 | 9.7 | 17.7 | 0.00 | 0.00 | 0.00 | 99 | 1014.2 |
| 20260506201538 | 13 | 78 | 0.0 | 0.0 | 0.00 | 0.00 | 0.00 | 99 | 1014.3 |
| 20260506201038 | 13 | 265 | 16.1 | 17.7 | 0.00 | 0.00 | 0.00 | 99 | 1014.3 |
| 20260506200538 | 13 | 152 | 3.2 | 9.7 | 0.00 | 0.00 | 0.00 | 99 | 1014.3 |
| 20260506200038 | 13 | 279 | 0.0 | 0.0 | 0.00 | 0.00 | 0.00 | 99 | 1014.3 |
| 20260506195538 | 13 | 322 | 0.0 | 3.2 | 0.00 | 0.00 | 0.00 | 99 | 1014.0 |
| 20260506195038 | 13 | 144 | 0.0 | 3.2 | 0.00 | 0.00 | 0.00 | 99 | 1014.0 |
| 20260506194538 | 13 | 86 | 0.0 | 3.2 | 0.00 | 0.00 | 0.00 | 99 | 1014.0 |
| 20260506194037 | 13 | 49 | 0.0 | 3.2 | 0.00 | 0.00 | 0.00 | 99 | 1014.2 |
| 20260506193538 | 13 | 3 | 3.2 | 9.7 | 0.00 | 0.00 | 0.00 | 99 | 1014.1 |
| 20260506193037 | 13 | 113 | 0.0 | 0.0 | 0.00 | 0.00 | 0.00 | 99 | 1014.1 |
| 20260506192537 | 13 | 148 | 0.0 | 0.0 | 0.00 | 0.00 | 0.00 | 99 | 1014.2 |
| 20260506192037 | 13 | 145 | 0.0 | 0.0 | 0.00 | 0.00 | 0.00 | 99 | 1014.3 |
| 20260506191537 | 13 | 145 | 0.0 | 0.0 | 0.00 | 0.00 | 0.00 | 99 | 1013.9 |
| 20260506191037 | 13 | 80 | 0.0 | 0.0 | 0.00 | 0.00 | 0.00 | 99 | 1014.1 |
| 20260506190537 | 13 | 80 | 0.0 | 0.0 | 0.00 | 0.00 | 0.00 | 99 | 1014.1 |
| 20260506190037 | 13 | 51 | 0.0 | 0.0 | 0.00 | 0.00 | 0.00 | 98 | 1014.0 |
| 20260506185537 | 13 | 336 | 1.6 | 3.2 | 0.00 | 0.00 | 0.00 | 98 | 1014.1 |
| 20260506185036 | 13 | 62 | 0.0 | 0.0 | 0.00 | 0.00 | 0.00 | 98 | 1014.2 |
| 20260506184537 | 13 | 290 | 0.0 | 0.0 | 0.00 | 0.00 | 0.00 | 98 | 1014.2 |
| 20260506184036 | 13 | 135 | 0.0 | 0.0 | 0.00 | 0.00 | 0.00 | 98 | 1014.2 |
| 20260506183536 | 14 | 201 | 0.0 | 0.0 | 0.00 | 0.00 | 0.00 | 98 | 1014.2 |
| 20260506183036 | 14 | 22 | 0.0 | 0.0 | 0.00 | 0.00 | 0.00 | 98 | 1014.0 |
| 20260506182536 | 14 | 299 | 3.2 | 9.7 | 0.00 | 0.00 | 0.00 | 98 | 1014.1 |
| 20260506182036 | 14 | 120 | 0.0 | 0.0 | 0.00 | 0.00 | 0.00 | 98 | 1014.1 |
| 20260506181536 | 15 | 288 | 0.0 | 0.0 | 0.00 | 0.00 | 0.00 | 99 | 1013.9 |
| 20260506181036 | 14 | 114 | 8.0 | 9.7 | 0.00 | 0.00 | 0.00 | 99 | 1013.8 |
| 20260506180536 | 13 | 285 | 3.2 | 9.7 | 0.00 | 0.00 | 0.00 | 99 | 1013.8 |
| 20260506180035 | 13 | 1 | 0.0 | 3.2 | 0.00 | 0.00 | 0.00 | 99 | 1014.1 |
| 20260506175535 | 13 | 165 | 3.2 | 3.2 | 0.00 | 0.00 | 0.00 | 98 | 1014.0 |
| 20260506175035 | 13 | 295 | 1.6 | 3.2 | 0.00 | 0.00 | 0.00 | 98 | 1014.1 |
| 20260506174536 | 13 | 316 | 6.4 | 17.7 | 0.00 | 0.00 | 0.00 | 98 | 1014.1 |
| 20260506174035 | 13 | 338 | 0.0 | 3.2 | 0.00 | 0.00 | 0.00 | 98 | 1014.0 |
| 20260506173535 | 13 | 110 | 0.0 | 0.0 | 0.00 | 0.00 | 0.00 | 98 | 1014.0 |
| 20260506173035 | 13 | 141 | 0.0 | 0.0 | 0.00 | 0.00 | 0.00 | 98 | 1014.0 |
| 20260506172535 | 13 | 121 | 0.0 | 0.0 | 0.00 | 0.00 | 0.00 | 98 | 1013.9 |
| 20260506172035 | 13 | 184 | 3.2 | 9.7 | 0.00 | 0.00 | 0.00 | 98 | 1013.9 |
| 20260506171535 | 13 | 142 | 0.0 | 3.2 | 0.00 | 0.00 | 0.00 | 98 | 1013.8 |
| 20260506171035 | 12 | 132 | 0.0 | 0.0 | 0.00 | 0.00 | 0.00 | 98 | 1013.8 |
| 20260506170535 | 12 | 130 | 0.0 | 0.0 | 0.00 | 0.00 | 0.00 | 98 | 1013.7 |
| 20260506170034 | 13 | 165 | 8.0 | 9.7 | 0.00 | 0.00 | 0.00 | 98 | 1013.6 |
| 20260506165534 | 13 | 89 | 0.0 | 0.0 | 0.00 | 0.00 | 0.00 | 98 | 1013.7 |
| 20260506165034 | 12 | 104 | 0.0 | 0.0 | 0.00 | 0.00 | 0.00 | 98 | 1013.4 |
| 20260506164534 | 13 | 92 | 0.0 | 0.0 | 0.00 | 0.00 | 0.00 | 98 | 1013.8 |
| 20260506164034 | 12 | 91 | 0.0 | 0.0 | 0.00 | 0.00 | 0.00 | 98 | 1013.7 |
| 20260506163534 | 12 | 60 | 0.0 | 0.0 | 0.00 | 0.00 | 0.00 | 98 | 1013.5 |
| 20260506163034 | 12 | 42 | 0.0 | 0.0 | 0.00 | 0.00 | 0.00 | 98 | 1013.5 |
| 20260506162534 | 12 | 113 | 0.0 | 0.0 | 0.00 | 0.00 | 0.00 | 98 | 1013.7 |
| 20260506162033 | 12 | 140 | 3.2 | 9.7 | 0.00 | 0.00 | 0.00 | 98 | 1013.3 |
| 20260506161533 | 12 | 142 | 0.0 | 0.0 | 0.00 | 0.00 | 0.00 | 98 | 1013.7 |
| 20260506161033 | 12 | 143 | 0.0 | 3.2 | 0.00 | 0.00 | 0.00 | 98 | 1013.3 |
| 20260506160533 | 12 | 175 | 17.7 | 22.5 | 0.00 | 0.00 | 0.00 | 97 | 1013.5 |
| 20260506160033 | 12 | 76 | 0.0 | 0.0 | 0.00 | 0.00 | 0.00 | 97 | 1013.5 |
| 20260506155533 | 12 | 231 | 11.3 | 22.5 | 0.00 | 0.00 | 0.00 | 97 | 1013.1 |
| 20260506155033 | 12 | 144 | 0.0 | 0.0 | 0.00 | 0.00 | 0.00 | 97 | 1013.3 |
| 20260506154533 | 12 | 155 | 3.2 | 9.7 | 0.00 | 0.00 | 0.00 | 95 | 1012.8 |
| 20260506154033 | 12 | 206 | 0.0 | 0.0 | 0.00 | 0.00 | 0.00 | 94 | 1013.2 |
| 20260506153533 | 13 | 137 | 0.0 | 0.0 | 0.00 | 0.00 | 0.00 | 94 | 1013.0 |
| 20260506153033 | 13 | 87 | 0.0 | 0.0 | 0.00 | 0.00 | 0.00 | 92 | 1013.1 |
| 20260506152532 | 13 | 131 | 0.0 | 0.0 | 0.00 | 0.00 | 0.00 | 90 | 1013.1 |
| 20260506152032 | 13 | 94 | 0.0 | 0.0 | 0.00 | 0.00 | 0.00 | 88 | 1013.0 |
| 20260506151532 | 14 | 156 | 0.0 | 0.0 | 0.00 | 0.00 | 0.00 | 87 | 1013.1 |
| 20260506151032 | 14 | 58 | 0.0 | 0.0 | 0.00 | 0.00 | 0.00 | 84 | 1012.7 |
| 20260506150532 | 14 | 15 | 0.0 | 0.0 | 0.00 | 0.00 | 0.00 | 83 | 1012.9 |